sensor_id;sensor_type;location;lat;lon;timestamp;pressure;altitude;pressure_sealevel;temperature;humidity
40920;BME280;26652;50.280;19.026;2023-07-20T00:01:18;97580.00;;;22.18;58.11
40920;BME280;26652;50.280;19.026;2023-07-20T00:03:20;97561.72;;;22.04;58.68
40920;BME280;26652;50.280;19.026;2023-07-20T00:05:25;97565.38;;;22.03;59.13
40920;BME280;26652;50.280;19.026;2023-07-20T00:07:26;97556.28;;;22.06;58.48
40920;BME280;26652;50.280;19.026;2023-07-20T00:09:27;97560.19;;;22.03;58.86
40920;BME280;26652;50.280;19.026;2023-07-20T00:11:27;97577.00;;;22.06;57.48
40920;BME280;26652;50.280;19.026;2023-07-20T00:13:28;97578.59;;;22.02;56.38
40920;BME280;26652;50.280;19.026;2023-07-20T00:15:29;97584.34;;;21.94;56.59
40920;BME280;26652;50.280;19.026;2023-07-20T00:17:29;97584.88;;;21.91;56.19
40920;BME280;26652;50.280;19.026;2023-07-20T00:19:30;97615.97;;;21.91;56.98
40920;BME280;26652;50.280;19.026;2023-07-20T00:21:32;97633.31;;;21.95;56.95
40920;BME280;26652;50.280;19.026;2023-07-20T00:23:33;97652.19;;;22.06;56.16
40920;BME280;26652;50.280;19.026;2023-07-20T00:25:34;97633.34;;;21.90;56.04
40920;BME280;26652;50.280;19.026;2023-07-20T00:27:35;97640.81;;;21.97;55.91
40920;BME280;26652;50.280;19.026;2023-07-20T00:29:36;97651.97;;;21.92;57.14
40920;BME280;26652;50.280;19.026;2023-07-20T00:31:37;97657.56;;;21.75;58.15
40920;BME280;26652;50.280;19.026;2023-07-20T00:33:38;97647.72;;;21.72;59.16
40920;BME280;26652;50.280;19.026;2023-07-20T00:35:39;97662.25;;;21.68;59.18
40920;BME280;26652;50.280;19.026;2023-07-20T00:37:40;97658.69;;;21.59;60.05
40920;BME280;26652;50.280;19.026;2023-07-20T00:39:40;97666.53;;;21.44;60.58
40920;BME280;26652;50.280;19.026;2023-07-20T00:41:41;97663.94;;;21.44;61.95
40920;BME280;26652;50.280;19.026;2023-07-20T00:43:42;97671.97;;;21.42;62.76
40920;BME280;26652;50.280;19.026;2023-07-20T00:45:43;97665.78;;;21.33;64.24
40920;BME280;26652;50.280;19.026;2023-07-20T00:47:44;97664.50;;;21.31;65.95
40920;BME280;26652;50.280;19.026;2023-07-20T00:49:45;97674.06;;;21.35;67.63
40920;BME280;26652;50.280;19.026;2023-07-20T00:51:48;97667.88;;;21.31;66.62
40920;BME280;26652;50.280;19.026;2023-07-20T00:53:49;97691.91;;;21.42;68.94
40920;BME280;26652;50.280;19.026;2023-07-20T00:55:50;97665.56;;;21.25;69.62
40920;BME280;26652;50.280;19.026;2023-07-20T00:57:51;97673.56;;;21.33;70.69
40920;BME280;26652;50.280;19.026;2023-07-20T00:59:52;97669.97;;;21.14;69.36
40920;BME280;26652;50.280;19.026;2023-07-20T01:01:52;97674.91;;;21.05;71.04
40920;BME280;26652;50.280;19.026;2023-07-20T01:03:53;97684.00;;;20.98;71.81
40920;BME280;26652;50.280;19.026;2023-07-20T01:06:04;97659.75;;;20.78;72.55
40920;BME280;26652;50.280;19.026;2023-07-20T01:08:23;97671.13;;;20.77;72.91
40920;BME280;26652;50.280;19.026;2023-07-20T01:10:31;97662.09;;;20.75;73.75
40920;BME280;26652;50.280;19.026;2023-07-20T01:12:51;97643.19;;;20.74;74.79
40920;BME280;26652;50.280;19.026;2023-07-20T01:14:52;97620.38;;;20.81;74.12
40920;BME280;26652;50.280;19.026;2023-07-20T01:16:53;97611.81;;;20.91;75.84
40920;BME280;26652;50.280;19.026;2023-07-20T01:18:54;97623.75;;;20.87;77.16
40920;BME280;26652;50.280;19.026;2023-07-20T01:20:59;97611.56;;;20.93;75.67
40920;BME280;26652;50.280;19.026;2023-07-20T01:23:26;97615.00;;;20.73;78.50
40920;BME280;26652;50.280;19.026;2023-07-20T01:25:52;97607.78;;;20.65;78.93
40920;BME280;26652;50.280;19.026;2023-07-20T01:32:55;97598.69;;;20.77;76.28
40920;BME280;26652;50.280;19.026;2023-07-20T01:34:59;97596.84;;;20.88;76.92
40920;BME280;26652;50.280;19.026;2023-07-20T01:37:01;97611.09;;;20.80;77.52
40920;BME280;26652;50.280;19.026;2023-07-20T01:39:03;97621.41;;;20.85;77.91
40920;BME280;26652;50.280;19.026;2023-07-20T01:41:05;97609.81;;;20.78;76.09
40920;BME280;26652;50.280;19.026;2023-07-20T01:43:06;97620.44;;;20.71;76.59
40920;BME280;26652;50.280;19.026;2023-07-20T01:45:07;97598.22;;;20.65;74.14
40920;BME280;26652;50.280;19.026;2023-07-20T01:47:08;97597.41;;;20.80;73.78
40920;BME280;26652;50.280;19.026;2023-07-20T01:49:08;97619.06;;;20.94;72.69
40920;BME280;26652;50.280;19.026;2023-07-20T01:51:09;97617.25;;;20.89;72.29
40920;BME280;26652;50.280;19.026;2023-07-20T01:53:10;97611.59;;;20.82;71.61
40920;BME280;26652;50.280;19.026;2023-07-20T01:55:11;97634.84;;;20.98;72.37
40920;BME280;26652;50.280;19.026;2023-07-20T01:57:11;97621.16;;;20.87;71.69
40920;BME280;26652;50.280;19.026;2023-07-20T01:59:12;97625.56;;;20.86;70.49
40920;BME280;26652;50.280;19.026;2023-07-20T02:01:13;97634.41;;;20.75;71.08
40920;BME280;26652;50.280;19.026;2023-07-20T02:03:14;97653.75;;;20.83;70.74
40920;BME280;26652;50.280;19.026;2023-07-20T02:05:14;97646.06;;;20.52;69.77
40920;BME280;26652;50.280;19.026;2023-07-20T02:07:15;97634.97;;;20.47;70.47
40920;BME280;26652;50.280;19.026;2023-07-20T02:09:16;97650.75;;;20.45;70.12
40920;BME280;26652;50.280;19.026;2023-07-20T02:11:17;97643.50;;;20.47;70.01
40920;BME280;26652;50.280;19.026;2023-07-20T02:13:17;97641.16;;;20.20;69.52
40920;BME280;26652;50.280;19.026;2023-07-20T02:15:18;97636.25;;;20.04;71.68
40920;BME280;26652;50.280;19.026;2023-07-20T02:17:19;97627.44;;;19.95;71.86
40920;BME280;26652;50.280;19.026;2023-07-20T02:19:20;97650.69;;;19.95;72.12
40920;BME280;26652;50.280;19.026;2023-07-20T02:21:21;97634.66;;;19.82;73.68
40920;BME280;26652;50.280;19.026;2023-07-20T02:23:22;97642.41;;;19.87;72.87
40920;BME280;26652;50.280;19.026;2023-07-20T02:25:23;97645.25;;;19.86;73.32
40920;BME280;26652;50.280;19.026;2023-07-20T02:27:24;97642.41;;;19.77;74.05
40920;BME280;26652;50.280;19.026;2023-07-20T02:29:24;97662.81;;;19.74;73.56
40920;BME280;26652;50.280;19.026;2023-07-20T02:31:25;97662.53;;;19.60;73.82
40920;BME280;26652;50.280;19.026;2023-07-20T02:33:26;97666.16;;;19.59;74.86
40920;BME280;26652;50.280;19.026;2023-07-20T02:35:27;97662.78;;;19.58;74.32
40920;BME280;26652;50.280;19.026;2023-07-20T02:37:27;97679.06;;;19.64;73.78
40920;BME280;26652;50.280;19.026;2023-07-20T02:39:28;97673.91;;;19.69;74.75
40920;BME280;26652;50.280;19.026;2023-07-20T02:41:33;97661.28;;;19.73;75.21
40920;BME280;26652;50.280;19.026;2023-07-20T02:43:34;97666.94;;;19.65;75.40
40920;BME280;26652;50.280;19.026;2023-07-20T02:45:35;97663.41;;;19.23;76.89
40920;BME280;26652;50.280;19.026;2023-07-20T02:47:36;97657.47;;;19.28;78.05
40920;BME280;26652;50.280;19.026;2023-07-20T02:49:36;97668.53;;;19.18;76.96
40920;BME280;26652;50.280;19.026;2023-07-20T02:51:37;97644.03;;;19.16;78.14
40920;BME280;26652;50.280;19.026;2023-07-20T02:53:38;97657.47;;;19.28;77.47
40920;BME280;26652;50.280;19.026;2023-07-20T02:55:39;97644.81;;;19.21;76.30
40920;BME280;26652;50.280;19.026;2023-07-20T02:57:39;97665.22;;;19.28;76.56
40920;BME280;26652;50.280;19.026;2023-07-20T02:59:40;97667.81;;;19.28;77.23
40920;BME280;26652;50.280;19.026;2023-07-20T03:01:41;97675.22;;;19.14;76.92
40920;BME280;26652;50.280;19.026;2023-07-20T03:03:43;97667.75;;;19.18;76.49
40920;BME280;26652;50.280;19.026;2023-07-20T03:05:46;97686.66;;;19.34;76.19
40920;BME280;26652;50.280;19.026;2023-07-20T03:07:48;97689.97;;;19.24;75.77
40920;BME280;26652;50.280;19.026;2023-07-20T03:09:49;97689.22;;;19.23;75.68
40920;BME280;26652;50.280;19.026;2023-07-20T03:11:50;97686.13;;;19.26;76.70
40920;BME280;26652;50.280;19.026;2023-07-20T03:13:51;97691.00;;;19.23;75.88
40920;BME280;26652;50.280;19.026;2023-07-20T03:15:53;97707.34;;;19.39;76.65
40920;BME280;26652;50.280;19.026;2023-07-20T03:17:53;97690.53;;;19.31;75.83
40920;BME280;26652;50.280;19.026;2023-07-20T03:19:54;97699.72;;;19.12;76.59
40920;BME280;26652;50.280;19.026;2023-07-20T03:21:55;97689.38;;;19.07;76.18
40920;BME280;26652;50.280;19.026;2023-07-20T03:23:55;97717.81;;;19.17;76.27
40920;BME280;26652;50.280;19.026;2023-07-20T03:25:56;97711.06;;;19.11;76.20
40920;BME280;26652;50.280;19.026;2023-07-20T03:27:57;97706.69;;;19.11;76.64
40920;BME280;26652;50.280;19.026;2023-07-20T03:29:57;97712.44;;;19.23;75.86
40920;BME280;26652;50.280;19.026;2023-07-20T03:31:58;97708.50;;;19.11;76.06
40920;BME280;26652;50.280;19.026;2023-07-20T03:33:59;97701.00;;;19.09;76.39
40920;BME280;26652;50.280;19.026;2023-07-20T03:36:00;97727.13;;;19.23;76.63
40920;BME280;26652;50.280;19.026;2023-07-20T03:38:01;97733.00;;;19.13;77.37
40920;BME280;26652;50.280;19.026;2023-07-20T03:40:02;97723.19;;;19.10;77.52
40920;BME280;26652;50.280;19.026;2023-07-20T03:42:03;97743.41;;;19.28;76.62
40920;BME280;26652;50.280;19.026;2023-07-20T03:44:04;97745.13;;;19.13;77.18
40920;BME280;26652;50.280;19.026;2023-07-20T03:46:05;97749.22;;;19.04;77.84
40920;BME280;26652;50.280;19.026;2023-07-20T03:48:07;97747.72;;;19.13;77.87
40920;BME280;26652;50.280;19.026;2023-07-20T03:50:08;97731.19;;;19.09;77.49
40920;BME280;26652;50.280;19.026;2023-07-20T03:52:10;97721.06;;;18.97;77.75
40920;BME280;26652;50.280;19.026;2023-07-20T03:54:11;97728.53;;;18.99;78.39
40920;BME280;26652;50.280;19.026;2023-07-20T03:56:11;97729.03;;;18.95;78.92
40920;BME280;26652;50.280;19.026;2023-07-20T03:58:13;97730.53;;;18.86;78.68
40920;BME280;26652;50.280;19.026;2023-07-20T04:00:14;97758.41;;;18.89;79.17
40920;BME280;26652;50.280;19.026;2023-07-20T04:02:16;97743.41;;;18.86;79.55
40920;BME280;26652;50.280;19.026;2023-07-20T04:04:17;97727.38;;;18.79;79.31
40920;BME280;26652;50.280;19.026;2023-07-20T04:06:18;97731.78;;;18.84;79.55
40920;BME280;26652;50.280;19.026;2023-07-20T04:08:19;97729.25;;;18.89;79.49
40920;BME280;26652;50.280;19.026;2023-07-20T04:10:19;97745.28;;;18.96;79.89
40920;BME280;26652;50.280;19.026;2023-07-20T04:12:20;97750.19;;;18.98;79.69
40920;BME280;26652;50.280;19.026;2023-07-20T04:14:21;97756.16;;;19.03;79.32
40920;BME280;26652;50.280;19.026;2023-07-20T04:16:22;97770.59;;;18.99;79.24
40920;BME280;26652;50.280;19.026;2023-07-20T04:18:22;97771.13;;;19.01;79.61
40920;BME280;26652;50.280;19.026;2023-07-20T04:20:23;97730.31;;;18.93;79.93
40920;BME280;26652;50.280;19.026;2023-07-20T04:22:24;97738.91;;;19.09;79.72
40920;BME280;26652;50.280;19.026;2023-07-20T04:24:25;97739.09;;;18.97;79.35
40920;BME280;26652;50.280;19.026;2023-07-20T04:26:26;97732.06;;;18.87;79.51
40920;BME280;26652;50.280;19.026;2023-07-20T04:28:26;97744.97;;;18.87;79.83
40920;BME280;26652;50.280;19.026;2023-07-20T04:30:27;97742.75;;;19.01;79.81
40920;BME280;26652;50.280;19.026;2023-07-20T04:32:28;97746.69;;;19.14;79.56
40920;BME280;26652;50.280;19.026;2023-07-20T04:34:29;97745.13;;;19.13;81.17
40920;BME280;26652;50.280;19.026;2023-07-20T04:36:29;97746.44;;;19.15;79.67
40920;BME280;26652;50.280;19.026;2023-07-20T04:38:30;97730.41;;;19.08;79.97
40920;BME280;26652;50.280;19.026;2023-07-20T04:40:31;97721.38;;;19.11;79.88
40920;BME280;26652;50.280;19.026;2023-07-20T04:42:32;97740.28;;;19.21;80.00
40920;BME280;26652;50.280;19.026;2023-07-20T04:44:32;97731.28;;;19.29;79.49
40920;BME280;26652;50.280;19.026;2023-07-20T04:46:33;97744.03;;;19.46;78.21
40920;BME280;26652;50.280;19.026;2023-07-20T04:48:34;97758.28;;;19.53;78.65
40920;BME280;26652;50.280;19.026;2023-07-20T04:50:34;97747.44;;;19.51;77.99
40920;BME280;26652;50.280;19.026;2023-07-20T04:52:36;97732.38;;;19.38;78.23
40920;BME280;26652;50.280;19.026;2023-07-20T04:54:37;97749.25;;;19.56;78.32
40920;BME280;26652;50.280;19.026;2023-07-20T04:56:38;97767.59;;;19.54;80.07
40920;BME280;26652;50.280;19.026;2023-07-20T04:58:38;97755.47;;;19.60;80.11
40920;BME280;26652;50.280;19.026;2023-07-20T05:00:39;97779.41;;;19.50;79.99
40920;BME280;26652;50.280;19.026;2023-07-20T05:02:40;97761.03;;;19.42;80.92
40920;BME280;26652;50.280;19.026;2023-07-20T05:04:41;97753.94;;;19.59;79.73
40920;BME280;26652;50.280;19.026;2023-07-20T05:06:42;97758.75;;;19.50;79.34
40920;BME280;26652;50.280;19.026;2023-07-20T05:08:42;97760.63;;;19.55;79.57
40920;BME280;26652;50.280;19.026;2023-07-20T05:10:43;97759.06;;;19.54;78.23
40920;BME280;26652;50.280;19.026;2023-07-20T05:12:44;97783.44;;;19.83;77.84
40920;BME280;26652;50.280;19.026;2023-07-20T05:14:45;97777.50;;;19.88;76.54
40920;BME280;26652;50.280;19.026;2023-07-20T05:16:46;97780.38;;;19.97;76.56
40920;BME280;26652;50.280;19.026;2023-07-20T05:18:47;97773.88;;;19.84;77.35
40920;BME280;26652;50.280;19.026;2023-07-20T05:20:47;97774.47;;;20.01;77.04
40920;BME280;26652;50.280;19.026;2023-07-20T05:22:48;97771.13;;;20.16;75.95
40920;BME280;26652;50.280;19.026;2023-07-20T05:24:49;97775.03;;;20.23;75.64
40920;BME280;26652;50.280;19.026;2023-07-20T05:26:50;97789.31;;;20.41;74.90
40920;BME280;26652;50.280;19.026;2023-07-20T05:28:51;97794.75;;;20.60;74.80
40920;BME280;26652;50.280;19.026;2023-07-20T05:30:52;97801.75;;;20.54;74.72
40920;BME280;26652;50.280;19.026;2023-07-20T05:32:53;97785.69;;;20.47;73.89
40920;BME280;26652;50.280;19.026;2023-07-20T05:34:55;97782.59;;;20.45;74.37
40920;BME280;26652;50.280;19.026;2023-07-20T05:36:55;97789.78;;;20.28;74.38
40920;BME280;26652;50.280;19.026;2023-07-20T05:38:56;97796.19;;;20.10;75.74
40920;BME280;26652;50.280;19.026;2023-07-20T05:40:59;97797.19;;;19.99;75.77
40920;BME280;26652;50.280;19.026;2023-07-20T05:43:02;97821.69;;;19.91;76.49
40920;BME280;26652;50.280;19.026;2023-07-20T05:45:03;97786.34;;;19.45;77.17
40920;BME280;26652;50.280;19.026;2023-07-20T05:47:07;97788.44;;;19.48;77.78
40920;BME280;26652;50.280;19.026;2023-07-20T05:49:08;97784.78;;;19.44;77.74
40920;BME280;26652;50.280;19.026;2023-07-20T05:51:09;97812.25;;;19.55;78.19
40920;BME280;26652;50.280;19.026;2023-07-20T05:53:09;97786.16;;;19.51;78.02
40920;BME280;26652;50.280;19.026;2023-07-20T05:55:10;97805.88;;;19.68;78.44
40920;BME280;26652;50.280;19.026;2023-07-20T05:57:11;97790.31;;;19.57;78.49
40920;BME280;26652;50.280;19.026;2023-07-20T05:59:12;97800.91;;;19.56;78.26
40920;BME280;26652;50.280;19.026;2023-07-20T06:01:12;97804.69;;;19.48;78.57
40920;BME280;26652;50.280;19.026;2023-07-20T06:03:13;97791.59;;;19.55;79.35
40920;BME280;26652;50.280;19.026;2023-07-20T06:05:14;97799.91;;;19.67;79.20
40920;BME280;26652;50.280;19.026;2023-07-20T06:07:15;97814.88;;;19.65;78.61
40920;BME280;26652;50.280;19.026;2023-07-20T06:09:15;97817.00;;;19.78;79.19
40920;BME280;26652;50.280;19.026;2023-07-20T06:11:16;97806.63;;;19.68;77.95
40920;BME280;26652;50.280;19.026;2023-07-20T06:13:17;97816.75;;;19.75;77.88
40920;BME280;26652;50.280;19.026;2023-07-20T06:15:32;97797.63;;;19.76;77.63
40920;BME280;26652;50.280;19.026;2023-07-20T06:17:33;97784.97;;;19.74;78.74
40920;BME280;26652;50.280;19.026;2023-07-20T06:19:34;97809.25;;;19.78;77.93
40920;BME280;26652;50.280;19.026;2023-07-20T06:21:35;97797.97;;;20.00;77.39
40920;BME280;26652;50.280;19.026;2023-07-20T06:23:36;97800.53;;;20.00;75.61
40920;BME280;26652;50.280;19.026;2023-07-20T06:25:37;97805.97;;;19.98;76.36
40920;BME280;26652;50.280;19.026;2023-07-20T06:27:38;97802.59;;;19.92;76.54
40920;BME280;26652;50.280;19.026;2023-07-20T06:29:47;97797.75;;;20.11;75.21
40920;BME280;26652;50.280;19.026;2023-07-20T06:31:48;97793.38;;;20.22;75.12
40920;BME280;26652;50.280;19.026;2023-07-20T06:33:48;97795.78;;;20.39;74.04
40920;BME280;26652;50.280;19.026;2023-07-20T06:35:49;97800.69;;;20.50;74.01
40920;BME280;26652;50.280;19.026;2023-07-20T06:37:50;97792.44;;;20.53;74.32
40920;BME280;26652;50.280;19.026;2023-07-20T06:39:51;97790.88;;;20.68;73.31
40920;BME280;26652;50.280;19.026;2023-07-20T06:41:51;97823.22;;;20.75;72.82
40920;BME280;26652;50.280;19.026;2023-07-20T06:43:52;97803.81;;;20.83;73.03
40920;BME280;26652;50.280;19.026;2023-07-20T06:45:58;97811.03;;;20.81;72.00
40920;BME280;26652;50.280;19.026;2023-07-20T06:47:59;97817.53;;;20.63;70.88
40920;BME280;26652;50.280;19.026;2023-07-20T06:49:59;97813.41;;;20.72;71.21
40920;BME280;26652;50.280;19.026;2023-07-20T06:52:00;97806.16;;;20.74;70.22
40920;BME280;26652;50.280;19.026;2023-07-20T06:54:01;97821.91;;;20.98;68.65
40920;BME280;26652;50.280;19.026;2023-07-20T06:56:05;97808.72;;;20.95;68.42
40920;BME280;26652;50.280;19.026;2023-07-20T06:58:05;97811.56;;;21.03;68.55
40920;BME280;26652;50.280;19.026;2023-07-20T07:00:07;97833.03;;;21.39;69.20
40920;BME280;26652;50.280;19.026;2023-07-20T07:02:08;97810.00;;;21.28;68.86
40920;BME280;26652;50.280;19.026;2023-07-20T07:04:08;97824.47;;;21.54;67.76
40920;BME280;26652;50.280;19.026;2023-07-20T07:06:09;97819.78;;;21.56;66.24
40920;BME280;26652;50.280;19.026;2023-07-20T07:08:11;97826.22;;;21.79;64.56
40920;BME280;26652;50.280;19.026;2023-07-20T07:10:12;97825.63;;;21.92;64.82
40920;BME280;26652;50.280;19.026;2023-07-20T07:12:13;97824.56;;;21.93;63.60
40920;BME280;26652;50.280;19.026;2023-07-20T07:14:14;97824.06;;;21.91;63.55
40920;BME280;26652;50.280;19.026;2023-07-20T07:16:19;97818.09;;;21.91;65.30
40920;BME280;26652;50.280;19.026;2023-07-20T07:18:19;97818.56;;;22.08;64.15
40920;BME280;26652;50.280;19.026;2023-07-20T07:20:21;97827.09;;;22.18;62.89
40920;BME280;26652;50.280;19.026;2023-07-20T07:22:22;97825.59;;;21.97;63.35
40920;BME280;26652;50.280;19.026;2023-07-20T07:24:23;97827.72;;;21.85;63.20
40920;BME280;26652;50.280;19.026;2023-07-20T07:26:23;97834.41;;;22.06;62.58
40920;BME280;26652;50.280;19.026;2023-07-20T07:28:24;97832.25;;;22.24;61.44
40920;BME280;26652;50.280;19.026;2023-07-20T07:30:25;97838.19;;;22.29;61.33
40920;BME280;26652;50.280;19.026;2023-07-20T07:32:26;97817.53;;;22.09;62.06
40920;BME280;26652;50.280;19.026;2023-07-20T07:34:27;97840.47;;;22.36;60.27
40920;BME280;26652;50.280;19.026;2023-07-20T07:36:28;97845.44;;;22.71;59.36
40920;BME280;26652;50.280;19.026;2023-07-20T07:38:29;97834.69;;;22.49;60.98
40920;BME280;26652;50.280;19.026;2023-07-20T07:40:30;97854.84;;;22.62;59.40
40920;BME280;26652;50.280;19.026;2023-07-20T07:42:30;97849.28;;;22.84;60.14
40920;BME280;26652;50.280;19.026;2023-07-20T07:44:31;97838.94;;;22.74;59.74
40920;BME280;26652;50.280;19.026;2023-07-20T07:46:32;97842.25;;;22.45;59.16
40920;BME280;26652;50.280;19.026;2023-07-20T07:48:33;97839.28;;;22.62;59.19
40920;BME280;26652;50.280;19.026;2023-07-20T07:50:34;97847.25;;;22.76;59.10
40920;BME280;26652;50.280;19.026;2023-07-20T07:52:35;97859.25;;;23.01;59.98
40920;BME280;26652;50.280;19.026;2023-07-20T07:54:35;97835.94;;;22.96;59.80
40920;BME280;26652;50.280;19.026;2023-07-20T07:56:36;97841.63;;;22.98;57.97
40920;BME280;26652;50.280;19.026;2023-07-20T07:58:37;97845.78;;;22.60;57.92
40920;BME280;26652;50.280;19.026;2023-07-20T08:00:38;97848.13;;;22.07;59.33
40920;BME280;26652;50.280;19.026;2023-07-20T08:02:40;97838.53;;;22.07;60.73
40920;BME280;26652;50.280;19.026;2023-07-20T08:04:41;97850.41;;;22.24;61.27
40920;BME280;26652;50.280;19.026;2023-07-20T08:06:41;97834.13;;;22.08;60.98
40920;BME280;26652;50.280;19.026;2023-07-20T08:08:42;97859.69;;;22.30;60.99
40920;BME280;26652;50.280;19.026;2023-07-20T08:10:43;97846.72;;;22.30;60.87
40920;BME280;26652;50.280;19.026;2023-07-20T08:12:44;97850.84;;;22.36;61.52
40920;BME280;26652;50.280;19.026;2023-07-20T08:14:44;97844.59;;;22.42;61.23
40920;BME280;26652;50.280;19.026;2023-07-20T08:16:45;97847.53;;;22.25;60.40
40920;BME280;26652;50.280;19.026;2023-07-20T08:18:46;97851.91;;;22.30;61.04
40920;BME280;26652;50.280;19.026;2023-07-20T08:20:47;97865.78;;;22.54;61.45
40920;BME280;26652;50.280;19.026;2023-07-20T08:22:47;97859.25;;;22.62;60.58
40920;BME280;26652;50.280;19.026;2023-07-20T08:24:48;97858.53;;;22.56;61.00
40920;BME280;26652;50.280;19.026;2023-07-20T08:26:49;97877.72;;;22.55;61.13
40920;BME280;26652;50.280;19.026;2023-07-20T08:28:50;97851.34;;;22.43;61.47
40920;BME280;26652;50.280;19.026;2023-07-20T08:30:50;97862.47;;;22.43;62.31
40920;BME280;26652;50.280;19.026;2023-07-20T08:32:51;97855.34;;;22.20;62.76
40920;BME280;26652;50.280;19.026;2023-07-20T08:34:52;97846.22;;;22.28;63.07
40920;BME280;26652;50.280;19.026;2023-07-20T08:36:53;97860.63;;;22.49;62.72
40920;BME280;26652;50.280;19.026;2023-07-20T08:38:54;97861.50;;;22.34;61.60
40920;BME280;26652;50.280;19.026;2023-07-20T08:40:54;97861.38;;;22.55;61.60
40920;BME280;26652;50.280;19.026;2023-07-20T08:42:58;97875.81;;;22.71;61.60
40920;BME280;26652;50.280;19.026;2023-07-20T08:44:59;97866.94;;;22.77;60.46
40920;BME280;26652;50.280;19.026;2023-07-20T08:47:02;97885.41;;;22.70;60.21
40920;BME280;26652;50.280;19.026;2023-07-20T08:49:05;97865.56;;;22.90;60.92
40920;BME280;26652;50.280;19.026;2023-07-20T08:51:06;97872.56;;;22.89;60.01
40920;BME280;26652;50.280;19.026;2023-07-20T08:53:08;97870.09;;;22.79;60.85
40920;BME280;26652;50.280;19.026;2023-07-20T08:55:09;97864.78;;;22.89;61.11
40920;BME280;26652;50.280;19.026;2023-07-20T08:57:10;97863.25;;;22.88;60.58
40920;BME280;26652;50.280;19.026;2023-07-20T08:59:16;97877.13;;;23.07;60.46
40920;BME280;26652;50.280;19.026;2023-07-20T09:01:18;97872.38;;;23.14;59.42
40920;BME280;26652;50.280;19.026;2023-07-20T09:03:20;97878.00;;;23.27;58.81
40920;BME280;26652;50.280;19.026;2023-07-20T09:05:24;97868.63;;;23.31;58.93
40920;BME280;26652;50.280;19.026;2023-07-20T09:07:25;97869.47;;;23.21;58.83
40920;BME280;26652;50.280;19.026;2023-07-20T09:09:26;97878.41;;;23.39;59.01
40920;BME280;26652;50.280;19.026;2023-07-20T09:11:27;97858.66;;;23.09;58.76
40920;BME280;26652;50.280;19.026;2023-07-20T09:13:28;97871.31;;;23.21;58.99
40920;BME280;26652;50.280;19.026;2023-07-20T09:15:29;97870.78;;;23.19;59.51
40920;BME280;26652;50.280;19.026;2023-07-20T09:17:30;97872.69;;;23.08;59.65
40920;BME280;26652;50.280;19.026;2023-07-20T09:19:31;97862.94;;;22.95;60.44
40920;BME280;26652;50.280;19.026;2023-07-20T09:21:34;97876.88;;;23.04;60.55
40920;BME280;26652;50.280;19.026;2023-07-20T09:23:37;97874.19;;;22.85;61.38
40920;BME280;26652;50.280;19.026;2023-07-20T09:25:40;97869.63;;;23.01;61.51
40920;BME280;26652;50.280;19.026;2023-07-20T09:27:43;97863.81;;;23.14;59.92
40920;BME280;26652;50.280;19.026;2023-07-20T09:29:53;97866.91;;;23.16;58.47
40920;BME280;26652;50.280;19.026;2023-07-20T09:32:01;97867.88;;;22.91;57.96
40920;BME280;26652;50.280;19.026;2023-07-20T09:34:02;97872.94;;;23.11;58.82
40920;BME280;26652;50.280;19.026;2023-07-20T09:36:05;97867.09;;;23.25;58.59
40920;BME280;26652;50.280;19.026;2023-07-20T09:38:06;97882.69;;;23.59;58.27
40920;BME280;26652;50.280;19.026;2023-07-20T09:40:09;97871.13;;;23.70;58.05
40920;BME280;26652;50.280;19.026;2023-07-20T09:42:13;97858.81;;;23.52;57.47
40920;BME280;26652;50.280;19.026;2023-07-20T09:44:15;97872.63;;;23.47;57.87
40920;BME280;26652;50.280;19.026;2023-07-20T09:46:16;97868.78;;;23.39;58.37
40920;BME280;26652;50.280;19.026;2023-07-20T09:48:18;97870.44;;;23.30;57.69
40920;BME280;26652;50.280;19.026;2023-07-20T09:50:23;97889.44;;;23.26;59.08
40920;BME280;26652;50.280;19.026;2023-07-20T09:52:25;97866.84;;;23.26;58.67
40920;BME280;26652;50.280;19.026;2023-07-20T09:54:27;97882.41;;;23.26;59.23
40920;BME280;26652;50.280;19.026;2023-07-20T09:56:30;97897.50;;;23.53;59.39
40920;BME280;26652;50.280;19.026;2023-07-20T09:58:31;97875.00;;;23.43;59.44
40920;BME280;26652;50.280;19.026;2023-07-20T10:00:38;97885.94;;;23.69;58.70
40920;BME280;26652;50.280;19.026;2023-07-20T10:02:44;97888.66;;;23.83;57.70
40920;BME280;26652;50.280;19.026;2023-07-20T10:04:45;97883.81;;;23.95;56.59
40920;BME280;26652;50.280;19.026;2023-07-20T10:06:47;97881.09;;;24.05;56.76
40920;BME280;26652;50.280;19.026;2023-07-20T10:08:53;97875.22;;;24.42;57.28
40920;BME280;26652;50.280;19.026;2023-07-20T10:10:54;97867.34;;;24.48;55.48
40920;BME280;26652;50.280;19.026;2023-07-20T10:12:57;97882.69;;;24.68;56.49
40920;BME280;26652;50.280;19.026;2023-07-20T10:15:28;97885.69;;;24.75;54.95
40920;BME280;26652;50.280;19.026;2023-07-20T10:17:26;97878.72;;;24.33;55.52
40920;BME280;26652;50.280;19.026;2023-07-20T10:19:34;97880.94;;;24.21;55.71
40920;BME280;26652;50.280;19.026;2023-07-20T10:21:42;97875.63;;;24.31;56.06
40920;BME280;26652;50.280;19.026;2023-07-20T10:23:48;97867.75;;;24.36;54.70
40920;BME280;26652;50.280;19.026;2023-07-20T10:25:50;97878.28;;;24.26;54.39
40920;BME280;26652;50.280;19.026;2023-07-20T10:27:51;97868.47;;;24.41;54.53
40920;BME280;26652;50.280;19.026;2023-07-20T10:29:52;97885.97;;;24.55;54.36
40920;BME280;26652;50.280;19.026;2023-07-20T10:31:55;97881.75;;;24.40;54.04
40920;BME280;26652;50.280;19.026;2023-07-20T10:33:57;97880.28;;;24.53;52.82
40920;BME280;26652;50.280;19.026;2023-07-20T10:36:02;97875.00;;;24.58;52.99
40920;BME280;26652;50.280;19.026;2023-07-20T10:38:06;97866.72;;;24.37;53.44
40920;BME280;26652;50.280;19.026;2023-07-20T10:42:33;97880.91;;;24.63;52.90
40920;BME280;26652;50.280;19.026;2023-07-20T10:44:33;97881.25;;;24.75;53.21